94ND weather

Michael Zurcher Farm Strip
Newburg, North Dakota, United States

Public forecast

Using degrees Fahrenheit for public forecast. Weather courtesy of forecast.io.

Closest aviation weather report (METAR) to Michael Zurcher Farm Strip

Closest report is Minot Air Force Base, 23.1 nm (42.7 km) SW. Retrieved 2020/08/07 14:56 UTC (12 minutes ago):

KMIB 071456Z AUTO 14009KT 10SM CLR 21/19 A2971 RMK AO2 SLP060 T02110186 50000

Closest aviation forecast (TAF) to Michael Zurcher Farm Strip

Forecast is more than 6 hours old.

Closest forecast is Minot Air Force Base, 23.1 nm (42.7 km) SW. Retrieved 2020/08/07 09:03 UTC (6 hours ago):

TAF KMIB 070900Z 0709/0815 15009KT 9999 FEW075 510072 QNH2965INS BECMG 0717/0718 20012G18KT 8000 VCTS BKN050CB QNH2967INS TEMPO 0720/0723 VRB25G35KT 6000 TSRA OVC050CB BECMG 0723/0724 30009KT 9999 NSW SCT060 QNH2970INS TX31/0722Z TN14/0808Z